aviador You're here:

KVSF Decoded Metar

SPRINGFIELD in VT, USA
Report Time2017-06-27 04:54:00
UTC Time2017-06-27 05:11:53
Flight Rules vfr VFR
WindCalm
Visibility9999 m
Phenomena:N/A
Clouds:Scattered 080 Hf
Broken 100 Hf
Overcast 120 Hf
Expected CloudBase > 400 ft AGL from Temp-Dew spread
Ceiling10,000 ft
Temp12°C (ISA -2)
Dew Point11°C (94% RH)
QNH1016 hPa
Density Alt430 ft
Elevation574 ft
Report Wrong Elevation
Raw Report
KVSF 270454Z AUTO 00000KT 10SM SCT080 BKN100 OVC120 12/11 A3001
RMK AO2 RAB15E31 SLP164 P0001 T01220106 402330106=

Extra information for KVSF:More info

Metar Taf Metar & Taf Last 4 Metars F.Rules Stats Wind Profile Meteogram Temp Stats Airport Information Weather charts Add Link Nearby VenuesMetar ALERT Operation Metar Decoded Social comments

AIRNAV info for KVSF